createdAt,value
2023-06-30T00:01:12.185Z,78.15
2023-06-30T00:06:14.568Z,77.94
2023-06-30T00:11:18.482Z,77.92
2023-06-30T00:16:21.628Z,77.63
2023-06-30T00:21:23.990Z,77.77
2023-06-30T00:26:26.368Z,78.03
2023-06-30T00:31:29.827Z,78.15
2023-06-30T00:36:32.947Z,78.10
2023-06-30T00:41:36.144Z,77.90
2023-06-30T00:46:38.611Z,78.27
2023-06-30T00:51:41.654Z,78.25
2023-06-30T00:56:44.220Z,78.41
2023-06-30T01:02:01.378Z,79.12
2023-06-30T01:07:24.486Z,78.49
2023-06-30T01:12:27.180Z,78.35
2023-06-30T01:17:30.043Z,78.52
2023-06-30T01:22:53.209Z,79.33
2023-06-30T01:27:57.309Z,78.71
2023-06-30T01:33:00.427Z,78.70
2023-06-30T01:38:03.821Z,78.55
2023-06-30T01:43:06.709Z,78.81
2023-06-30T01:48:09.286Z,78.81
2023-06-30T01:53:11.755Z,78.74
2023-06-30T01:58:14.129Z,78.73
2023-06-30T02:03:16.604Z,78.94
2023-06-30T02:08:19.187Z,78.99
2023-06-30T02:13:21.532Z,79.10
2023-06-30T02:18:26.492Z,78.99
2023-06-30T02:23:31.549Z,79.30
2023-06-30T02:28:33.970Z,79.47
2023-06-30T02:33:36.774Z,79.40
2023-06-30T02:38:39.145Z,79.23
2023-06-30T02:43:41.568Z,79.38
2023-06-30T02:48:44.088Z,79.26
2023-06-30T02:53:46.839Z,79.23
2023-06-30T02:58:49.207Z,79.54
2023-06-30T03:03:51.832Z,79.20
2023-06-30T03:08:54.422Z,79.82
2023-06-30T03:14:00.252Z,79.38
2023-06-30T03:19:08.031Z,79.37
2023-06-30T03:24:11.112Z,79.98
2023-06-30T03:29:13.527Z,79.78
2023-06-30T03:34:16.135Z,79.51
2023-06-30T03:39:19.409Z,79.44
2023-06-30T03:44:22.854Z,79.51
2023-06-30T03:49:25.843Z,79.58
2023-06-30T03:54:28.335Z,79.55
2023-06-30T03:59:30.795Z,79.25
2023-06-30T04:04:33.671Z,79.65
2023-06-30T04:09:36.803Z,79.52
2023-06-30T04:14:39.259Z,79.56
2023-06-30T04:19:41.611Z,79.62
2023-06-30T04:24:44.001Z,79.25
2023-06-30T04:29:46.364Z,78.96
2023-06-30T04:34:48.761Z,79.14
2023-06-30T04:39:51.793Z,79.35
2023-06-30T04:44:54.478Z,79.13
2023-06-30T04:49:56.990Z,79.17
2023-06-30T04:54:59.403Z,79.27
2023-06-30T05:00:02.107Z,79.04
2023-06-30T05:05:08.264Z,79.04
2023-06-30T05:10:11.198Z,78.73
2023-06-30T05:15:13.629Z,78.73
2023-06-30T05:20:16.728Z,78.38
2023-06-30T05:25:19.195Z,78.54
2023-06-30T05:30:21.559Z,78.40
2023-06-30T05:35:23.954Z,78.54
2023-06-30T05:40:26.338Z,78.40
2023-06-30T05:45:28.727Z,78.50
2023-06-30T05:50:31.291Z,78.36
2023-06-30T05:55:33.664Z,78.53
2023-06-30T06:00:36.323Z,78.40
2023-06-30T06:05:38.986Z,78.46
2023-06-30T06:10:41.702Z,78.13
2023-06-30T06:15:44.457Z,78.44
2023-06-30T06:20:46.988Z,78.08
2023-06-30T06:25:50.588Z,78.43
2023-06-30T06:30:53.403Z,78.21
2023-06-30T06:35:55.842Z,78.92
2023-06-30T06:40:58.289Z,78.39
2023-06-30T06:46:00.734Z,78.49
2023-06-30T06:51:04.806Z,78.41
2023-06-30T06:56:07.178Z,78.35
2023-06-30T07:01:11.501Z,78.12
2023-06-30T07:06:13.868Z,78.26
2023-06-30T07:11:16.246Z,77.96
2023-06-30T07:16:23.107Z,78.28
2023-06-30T07:21:27.667Z,78.65
2023-06-30T07:26:32.886Z,78.41
2023-06-30T07:31:35.684Z,78.07
2023-06-30T07:36:38.600Z,78.16
2023-06-30T07:41:40.953Z,78.32
2023-06-30T07:46:43.477Z,78.09
2023-06-30T07:51:46.835Z,78.28
2023-06-30T07:56:49.366Z,78.13
2023-06-30T08:01:52.499Z,77.79
2023-06-30T08:06:56.027Z,77.89
2023-06-30T08:11:58.894Z,77.06
2023-06-30T08:17:01.662Z,76.71
2023-06-30T08:22:04.619Z,76.61
2023-06-30T08:27:07.293Z,76.32
2023-06-30T08:32:10.200Z,75.86
2023-06-30T08:37:12.678Z,75.58
2023-06-30T08:42:16.596Z,75.78
2023-06-30T08:47:19.323Z,75.41
2023-06-30T08:52:23.337Z,75.13
2023-06-30T08:57:26.563Z,74.88
2023-06-30T09:02:29.302Z,74.16
2023-06-30T09:07:37.576Z,74.17
2023-06-30T09:12:41.065Z,74.46
2023-06-30T09:17:44.386Z,73.64
2023-06-30T09:22:51.608Z,73.55
2023-06-30T09:27:58.194Z,73.49
2023-06-30T09:33:01.081Z,73.26
2023-06-30T09:38:17.640Z,72.26
2023-06-30T09:43:22.048Z,71.57
2023-06-30T09:48:32.587Z,71.34
2023-06-30T09:53:42.303Z,71.04
2023-06-30T09:58:46.319Z,72.31
2023-06-30T10:03:50.374Z,73.27
2023-06-30T10:08:53.288Z,73.72
2023-06-30T10:13:59.357Z,74.52
2023-06-30T10:19:04.134Z,74.99
2023-06-30T10:24:07.122Z,75.43
2023-06-30T10:29:09.682Z,76.01
2023-06-30T10:34:12.518Z,76.01
2023-06-30T10:39:15.497Z,75.98
2023-06-30T10:44:22.215Z,76.16
2023-06-30T10:49:29.211Z,75.06
2023-06-30T10:54:48.935Z,75.43
2023-06-30T11:00:08.407Z,75.00
2023-06-30T11:05:30.587Z,75.07
2023-06-30T11:10:46.288Z,76.34
2023-06-30T11:15:53.455Z,75.60
2023-06-30T11:21:01.461Z,75.16
2023-06-30T11:26:30.118Z,75.52
2023-06-30T11:31:37.938Z,75.21
2023-06-30T11:36:40.447Z,75.32
2023-06-30T11:41:44.961Z,75.22
2023-06-30T11:46:47.501Z,75.04
2023-06-30T11:51:50.079Z,74.83
2023-06-30T11:56:52.497Z,74.75
2023-06-30T12:01:55.520Z,74.89
2023-06-30T12:06:58.040Z,74.54
2023-06-30T12:12:02.035Z,74.94
2023-06-30T12:17:05.715Z,75.00
2023-06-30T12:22:13.422Z,75.14
2023-06-30T12:27:16.331Z,75.15
2023-06-30T12:32:18.868Z,75.23
2023-06-30T12:37:26.728Z,75.41
2023-06-30T12:42:30.013Z,75.23
2023-06-30T12:47:34.219Z,75.52
2023-06-30T12:52:36.872Z,75.60
2023-06-30T12:57:40.141Z,75.93
2023-06-30T13:02:42.917Z,76.14
2023-06-30T13:07:46.093Z,76.56
2023-06-30T13:12:48.643Z,76.60
2023-06-30T13:17:51.840Z,76.48
2023-06-30T13:23:10.044Z,76.67
2023-06-30T13:28:16.753Z,76.43
2023-06-30T13:33:20.715Z,76.17
2023-06-30T13:38:24.551Z,76.69
2023-06-30T13:43:27.021Z,76.72
2023-06-30T13:48:33.310Z,76.84
2023-06-30T13:53:40.506Z,77.55
2023-06-30T13:58:43.177Z,77.11
2023-06-30T14:03:49.901Z,77.49
2023-06-30T14:08:52.452Z,77.23
2023-06-30T14:13:55.148Z,77.53
2023-06-30T14:18:57.652Z,77.23
2023-06-30T14:24:00.111Z,77.15
2023-06-30T14:29:02.682Z,76.43
2023-06-30T14:34:05.121Z,76.26
2023-06-30T14:39:07.763Z,76.89
2023-06-30T14:44:10.194Z,77.06
2023-06-30T14:49:12.704Z,77.30
2023-06-30T14:54:15.096Z,77.24
2023-06-30T14:59:17.569Z,76.79
2023-06-30T15:04:20.109Z,76.85
2023-06-30T15:09:22.735Z,76.88
2023-06-30T15:14:27.665Z,77.11
2023-06-30T15:19:30.163Z,77.07
2023-06-30T15:24:33.381Z,76.58
2023-06-30T15:29:35.850Z,76.56
2023-06-30T15:34:38.418Z,75.96
2023-06-30T15:39:40.934Z,75.53
2023-06-30T15:44:43.424Z,75.52
2023-06-30T15:49:46.653Z,74.89
2023-06-30T15:55:10.071Z,74.99
2023-06-30T16:00:13.458Z,74.92
2023-06-30T16:05:18.022Z,75.25
2023-06-30T16:10:20.529Z,74.76
2023-06-30T16:15:23.643Z,74.63
2023-06-30T16:20:26.722Z,74.63
2023-06-30T16:25:29.101Z,74.51
2023-06-30T16:30:34.418Z,74.80
2023-06-30T16:35:36.901Z,74.43
2023-06-30T16:40:39.573Z,74.92
2023-06-30T16:45:42.041Z,75.18
2023-06-30T16:50:44.592Z,75.35
2023-06-30T16:55:47.440Z,75.54
2023-06-30T17:00:50.878Z,75.34
2023-06-30T17:05:53.561Z,75.24
2023-06-30T17:10:56.397Z,75.33
2023-06-30T17:15:58.952Z,75.53
2023-06-30T17:21:01.620Z,75.53
2023-06-30T17:26:04.172Z,75.63
2023-06-30T17:31:06.939Z,75.48
2023-06-30T17:36:11.513Z,75.32
2023-06-30T17:41:14.334Z,75.73
2023-06-30T17:46:17.866Z,75.52
2023-06-30T17:51:20.367Z,75.62
2023-06-30T17:56:23.903Z,75.62
2023-06-30T18:01:26.421Z,75.96
2023-06-30T18:06:29.049Z,75.73
2023-06-30T18:11:31.535Z,76.10
2023-06-30T18:16:34.052Z,75.30
2023-06-30T18:21:36.494Z,75.82
2023-06-30T18:26:42.094Z,75.22
2023-06-30T18:31:44.901Z,75.51
2023-06-30T18:36:47.746Z,75.03
2023-06-30T18:41:50.578Z,75.73
2023-06-30T18:46:53.300Z,75.64
2023-06-30T18:51:55.751Z,75.78
2023-06-30T18:56:58.651Z,75.54
2023-06-30T19:02:01.302Z,75.81
2023-06-30T19:07:04.153Z,75.84
2023-06-30T19:12:07.202Z,76.06
2023-06-30T19:17:10.906Z,75.86
2023-06-30T19:22:16.062Z,76.02
2023-06-30T19:27:18.916Z,76.22
2023-06-30T19:32:21.499Z,76.16
2023-06-30T19:37:23.995Z,76.33
2023-06-30T19:42:28.829Z,76.26
2023-06-30T19:47:33.577Z,76.21
2023-06-30T19:52:38.213Z,76.21
2023-06-30T19:57:41.130Z,75.98
2023-06-30T20:02:44.546Z,76.24
2023-06-30T20:07:47.625Z,76.42
2023-06-30T20:12:51.112Z,76.71
2023-06-30T20:17:53.614Z,76.43
2023-06-30T20:22:57.187Z,76.19
2023-06-30T20:27:59.660Z,76.50
2023-06-30T20:33:02.191Z,76.46
2023-06-30T20:38:04.765Z,76.42
2023-06-30T20:43:07.208Z,76.72
2023-06-30T20:48:10.332Z,76.72
2023-06-30T20:53:12.743Z,76.68
2023-06-30T20:58:15.194Z,76.74
2023-06-30T21:03:17.839Z,76.62
2023-06-30T21:08:20.400Z,76.96
2023-06-30T21:13:22.784Z,77.25
2023-06-30T21:18:25.200Z,76.99
2023-06-30T21:23:27.598Z,77.25
2023-06-30T21:28:30.862Z,76.84
2023-06-30T21:33:33.343Z,77.01
2023-06-30T21:38:36.179Z,77.32
2023-06-30T21:43:38.552Z,77.14
2023-06-30T21:48:41.208Z,77.58
2023-06-30T21:53:43.677Z,77.76
2023-06-30T21:58:46.166Z,77.63
2023-06-30T22:03:48.682Z,77.64
2023-06-30T22:08:53.394Z,77.76
2023-06-30T22:13:57.965Z,77.79
2023-06-30T22:19:00.325Z,77.93
2023-06-30T22:24:02.738Z,78.35
2023-06-30T22:29:05.174Z,78.10
2023-06-30T22:34:07.768Z,78.35
2023-06-30T22:39:11.276Z,78.44
2023-06-30T22:44:13.684Z,78.56
2023-06-30T22:49:19.261Z,78.47
2023-06-30T22:54:21.652Z,78.53
2023-06-30T22:59:24.057Z,78.77
2023-06-30T23:04:26.469Z,78.73
2023-06-30T23:09:28.914Z,78.86
2023-06-30T23:14:31.382Z,78.72
2023-06-30T23:19:33.877Z,78.78
2023-06-30T23:24:37.043Z,79.42
2023-06-30T23:29:39.595Z,79.14
2023-06-30T23:34:42.019Z,79.42
2023-06-30T23:39:44.830Z,79.53
2023-06-30T23:44:47.229Z,79.90
2023-06-30T23:49:49.606Z,79.86
2023-06-30T23:54:52.346Z,80.33
2023-06-30T23:59:54.695Z,80.40
